Terminal Aerodrome Forecast
Issued by NWS

Home | Current Version | Previous Version | Text Only | Print | Product List | Glossary On
Versions: 1 2 3 4 5 6 7 8 9 10 11 12 13 14
000
FTUS45 KRIW 212300
TAFBPI
TAF
KBPI 212337Z 2200/2224 VRB05KT P6SM VCSH SCT050 BKN080
     FM220300 10006KT P6SM VCSH SCT040 BKN060
     FM220800 12005KT P6SM VCSH SCT020 BKN035
     FM221600 16005KT P6SM VCSH BKN060
     FM221800 16007KT P6SM VCTS BKN050CB=

USA.gov is the U.S. government's official web portal to all federal, state and local government web resources and services.